sensor_id;sensor_type;location;lat;lon;timestamp;temperature;humidity
56308;DHT22;42217;50.422;7.210;2024-03-23T00:55:59;7.70;99.90
56308;DHT22;42217;50.422;7.210;2024-03-23T00:58:24;7.60;99.90
56308;DHT22;42217;50.422;7.210;2024-03-23T01:00:50;7.50;99.90
56308;DHT22;42217;50.422;7.210;2024-03-23T01:03:16;7.20;99.90
56308;DHT22;42217;50.422;7.210;2024-03-23T01:05:41;7.10;99.90
56308;DHT22;42217;50.422;7.210;2024-03-23T01:08:07;6.90;99.90
56308;DHT22;42217;50.422;7.210;2024-03-23T01:10:33;6.80;99.90
56308;DHT22;42217;50.422;7.210;2024-03-23T01:12:58;6.70;99.90
56308;DHT22;42217;50.422;7.210;2024-03-23T01:15:24;6.60;99.90
56308;DHT22;42217;50.422;7.210;2024-03-23T01:17:50;6.60;99.90
56308;DHT22;42217;50.422;7.210;2024-03-23T01:20:15;6.60;99.90
56308;DHT22;42217;50.422;7.210;2024-03-23T01:22:42;6.50;99.90
56308;DHT22;42217;50.422;7.210;2024-03-23T01:25:07;6.50;99.90
56308;DHT22;42217;50.422;7.210;2024-03-23T01:27:33;6.50;99.90
56308;DHT22;42217;50.422;7.210;2024-03-23T01:29:59;6.50;99.90
56308;DHT22;42217;50.422;7.210;2024-03-23T01:32:25;6.50;99.90
56308;DHT22;42217;50.422;7.210;2024-03-23T01:34:51;6.40;99.90
56308;DHT22;42217;50.422;7.210;2024-03-23T01:37:16;6.40;99.90
56308;DHT22;42217;50.422;7.210;2024-03-23T01:39:42;6.30;99.90
56308;DHT22;42217;50.422;7.210;2024-03-23T01:42:08;6.30;99.90
56308;DHT22;42217;50.422;7.210;2024-03-23T01:44:33;6.30;99.90
56308;DHT22;42217;50.422;7.210;2024-03-23T01:46:59;6.20;99.90
56308;DHT22;42217;50.422;7.210;2024-03-23T01:49:25;6.30;99.90
56308;DHT22;42217;50.422;7.210;2024-03-23T01:51:51;6.20;99.90
56308;DHT22;42217;50.422;7.210;2024-03-23T01:54:16;6.20;99.90
56308;DHT22;42217;50.422;7.210;2024-03-23T01:56:42;6.20;99.90
56308;DHT22;42217;50.422;7.210;2024-03-23T01:59:08;6.20;99.90
56308;DHT22;42217;50.422;7.210;2024-03-23T02:01:36;6.10;99.90
56308;DHT22;42217;50.422;7.210;2024-03-23T02:04:02;6.10;99.90
56308;DHT22;42217;50.422;7.210;2024-03-23T02:06:28;6.10;99.90
56308;DHT22;42217;50.422;7.210;2024-03-23T02:08:55;6.00;99.90
56308;DHT22;42217;50.422;7.210;2024-03-23T02:11:20;6.00;99.90
56308;DHT22;42217;50.422;7.210;2024-03-23T02:13:46;5.90;99.90
56308;DHT22;42217;50.422;7.210;2024-03-23T02:16:12;5.90;99.90
56308;DHT22;42217;50.422;7.210;2024-03-23T02:18:39;5.90;99.90
56308;DHT22;42217;50.422;7.210;2024-03-23T02:21:04;5.80;99.90
56308;DHT22;42217;50.422;7.210;2024-03-23T02:23:30;5.80;99.90
56308;DHT22;42217;50.422;7.210;2024-03-23T02:25:56;5.80;99.90
56308;DHT22;42217;50.422;7.210;2024-03-23T02:28:22;5.80;99.90
56308;DHT22;42217;50.422;7.210;2024-03-23T02:30:51;5.70;99.90
56308;DHT22;42217;50.422;7.210;2024-03-23T02:33:17;5.70;99.90
56308;DHT22;42217;50.422;7.210;2024-03-23T02:35:47;5.60;99.90
56308;DHT22;42217;50.422;7.210;2024-03-23T02:38:12;5.60;99.90
56308;DHT22;42217;50.422;7.210;2024-03-23T02:40:38;5.60;99.90
56308;DHT22;42217;50.422;7.210;2024-03-23T02:43:04;5.60;99.90
56308;DHT22;42217;50.422;7.210;2024-03-23T02:45:30;5.60;99.90
56308;DHT22;42217;50.422;7.210;2024-03-23T02:47:56;5.60;99.90
56308;DHT22;42217;50.422;7.210;2024-03-23T02:50:22;5.60;99.90
56308;DHT22;42217;50.422;7.210;2024-03-23T02:52:48;5.60;99.90
56308;DHT22;42217;50.422;7.210;2024-03-23T02:55:14;5.60;99.90
56308;DHT22;42217;50.422;7.210;2024-03-23T02:57:40;5.60;99.90
56308;DHT22;42217;50.422;7.210;2024-03-23T03:00:06;5.60;99.90
56308;DHT22;42217;50.422;7.210;2024-03-23T03:02:33;5.60;99.90
56308;DHT22;42217;50.422;7.210;2024-03-23T03:04:59;5.60;99.90
56308;DHT22;42217;50.422;7.210;2024-03-23T03:07:24;5.60;99.90
56308;DHT22;42217;50.422;7.210;2024-03-23T03:09:50;5.60;99.90
56308;DHT22;42217;50.422;7.210;2024-03-23T03:12:16;5.60;99.90
56308;DHT22;42217;50.422;7.210;2024-03-23T03:14:42;5.50;99.90
56308;DHT22;42217;50.422;7.210;2024-03-23T03:17:08;5.50;99.90
56308;DHT22;42217;50.422;7.210;2024-03-23T03:19:34;5.50;99.90
56308;DHT22;42217;50.422;7.210;2024-03-23T03:21:59;5.40;99.90
56308;DHT22;42217;50.422;7.210;2024-03-23T03:24:25;5.50;99.90
56308;DHT22;42217;50.422;7.210;2024-03-23T03:26:51;5.50;99.90
56308;DHT22;42217;50.422;7.210;2024-03-23T03:29:17;5.50;99.90
56308;DHT22;42217;50.422;7.210;2024-03-23T03:31:45;5.50;99.90
56308;DHT22;42217;50.422;7.210;2024-03-23T03:34:11;5.40;99.90
56308;DHT22;42217;50.422;7.210;2024-03-23T03:36:37;5.40;99.90
56308;DHT22;42217;50.422;7.210;2024-03-23T03:39:02;5.30;99.90
56308;DHT22;42217;50.422;7.210;2024-03-23T03:41:29;5.20;99.90
56308;DHT22;42217;50.422;7.210;2024-03-23T03:43:55;5.10;99.90
56308;DHT22;42217;50.422;7.210;2024-03-23T03:46:21;5.00;99.90
56308;DHT22;42217;50.422;7.210;2024-03-23T03:48:46;4.90;99.90
56308;DHT22;42217;50.422;7.210;2024-03-23T03:51:14;4.80;99.90
56308;DHT22;42217;50.422;7.210;2024-03-23T03:53:39;4.70;99.90
56308;DHT22;42217;50.422;7.210;2024-03-23T03:56:05;4.60;99.90
56308;DHT22;42217;50.422;7.210;2024-03-23T03:58:31;4.50;99.90
56308;DHT22;42217;50.422;7.210;2024-03-23T04:00:56;4.40;99.90
56308;DHT22;42217;50.422;7.210;2024-03-23T04:03:22;4.30;99.90
56308;DHT22;42217;50.422;7.210;2024-03-23T04:05:54;4.10;99.90
56308;DHT22;42217;50.422;7.210;2024-03-23T04:08:20;3.90;99.90
56308;DHT22;42217;50.422;7.210;2024-03-23T04:10:46;3.80;99.90
56308;DHT22;42217;50.422;7.210;2024-03-23T04:13:13;3.80;99.90
56308;DHT22;42217;50.422;7.210;2024-03-23T04:15:39;3.70;99.90
56308;DHT22;42217;50.422;7.210;2024-03-23T04:18:05;3.60;99.90
56308;DHT22;42217;50.422;7.210;2024-03-23T04:20:30;3.60;99.90
56308;DHT22;42217;50.422;7.210;2024-03-23T04:22:58;3.60;99.90
56308;DHT22;42217;50.422;7.210;2024-03-23T04:25:23;3.60;99.90
56308;DHT22;42217;50.422;7.210;2024-03-23T04:27:49;3.50;99.90
56308;DHT22;42217;50.422;7.210;2024-03-23T04:30:15;3.50;99.90
56308;DHT22;42217;50.422;7.210;2024-03-23T04:32:41;3.50;99.90
56308;DHT22;42217;50.422;7.210;2024-03-23T04:35:07;3.50;99.90
56308;DHT22;42217;50.422;7.210;2024-03-23T04:37:37;3.50;99.90
56308;DHT22;42217;50.422;7.210;2024-03-23T04:40:03;3.40;99.90
56308;DHT22;42217;50.422;7.210;2024-03-23T04:42:29;3.40;99.90
56308;DHT22;42217;50.422;7.210;2024-03-23T04:44:55;3.40;99.90
56308;DHT22;42217;50.422;7.210;2024-03-23T04:47:21;3.40;99.90
56308;DHT22;42217;50.422;7.210;2024-03-23T04:49:47;3.50;99.90
56308;DHT22;42217;50.422;7.210;2024-03-23T04:52:14;3.50;99.90
56308;DHT22;42217;50.422;7.210;2024-03-23T04:54:40;3.50;99.90
56308;DHT22;42217;50.422;7.210;2024-03-23T04:57:06;3.50;99.90
56308;DHT22;42217;50.422;7.210;2024-03-23T04:59:32;3.50;99.90
56308;DHT22;42217;50.422;7.210;2024-03-23T05:01:59;3.50;99.90
56308;DHT22;42217;50.422;7.210;2024-03-23T05:04:25;3.50;99.90
56308;DHT22;42217;50.422;7.210;2024-03-23T05:06:51;3.50;99.90
56308;DHT22;42217;50.422;7.210;2024-03-23T05:09:16;3.60;99.90
56308;DHT22;42217;50.422;7.210;2024-03-23T05:11:42;3.50;99.90
56308;DHT22;42217;50.422;7.210;2024-03-23T05:14:08;3.50;99.90
56308;DHT22;42217;50.422;7.210;2024-03-23T05:16:34;3.60;99.90
56308;DHT22;42217;50.422;7.210;2024-03-23T05:19:00;3.70;99.90
56308;DHT22;42217;50.422;7.210;2024-03-23T05:21:26;3.70;99.90
56308;DHT22;42217;50.422;7.210;2024-03-23T05:23:53;3.70;99.90
56308;DHT22;42217;50.422;7.210;2024-03-23T05:26:20;3.70;99.90
56308;DHT22;42217;50.422;7.210;2024-03-23T05:28:45;3.70;99.90
56308;DHT22;42217;50.422;7.210;2024-03-23T05:31:11;3.70;99.90
56308;DHT22;42217;50.422;7.210;2024-03-23T05:33:37;3.70;99.90
56308;DHT22;42217;50.422;7.210;2024-03-23T05:36:05;3.70;99.90
56308;DHT22;42217;50.422;7.210;2024-03-23T05:38:31;3.70;99.90
56308;DHT22;42217;50.422;7.210;2024-03-23T05:40:58;3.70;99.90
56308;DHT22;42217;50.422;7.210;2024-03-23T05:43:26;3.70;99.90
56308;DHT22;42217;50.422;7.210;2024-03-23T05:45:55;3.70;99.90
56308;DHT22;42217;50.422;7.210;2024-03-23T05:48:21;3.70;99.90
56308;DHT22;42217;50.422;7.210;2024-03-23T05:50:48;3.70;99.90
56308;DHT22;42217;50.422;7.210;2024-03-23T05:53:17;3.70;99.90
56308;DHT22;42217;50.422;7.210;2024-03-23T05:55:44;3.70;99.90
56308;DHT22;42217;50.422;7.210;2024-03-23T05:58:10;3.70;99.90
56308;DHT22;42217;50.422;7.210;2024-03-23T06:00:36;3.80;99.90
56308;DHT22;42217;50.422;7.210;2024-03-23T06:03:01;3.80;99.90
56308;DHT22;42217;50.422;7.210;2024-03-23T06:05:27;3.70;99.90
56308;DHT22;42217;50.422;7.210;2024-03-23T06:07:53;3.60;99.90
56308;DHT22;42217;50.422;7.210;2024-03-23T06:10:19;3.50;99.90
56308;DHT22;42217;50.422;7.210;2024-03-23T06:12:46;3.60;99.90
56308;DHT22;42217;50.422;7.210;2024-03-23T06:15:12;3.60;99.90
56308;DHT22;42217;50.422;7.210;2024-03-23T06:17:38;3.50;99.90
56308;DHT22;42217;50.422;7.210;2024-03-23T06:20:05;3.60;99.90
56308;DHT22;42217;50.422;7.210;2024-03-23T06:22:32;3.50;99.90
56308;DHT22;42217;50.422;7.210;2024-03-23T06:24:57;3.60;99.90
56308;DHT22;42217;50.422;7.210;2024-03-23T06:27:23;3.70;99.90
56308;DHT22;42217;50.422;7.210;2024-03-23T06:29:49;3.80;99.90
56308;DHT22;42217;50.422;7.210;2024-03-23T06:32:14;3.80;99.90
56308;DHT22;42217;50.422;7.210;2024-03-23T06:34:43;4.00;99.90
56308;DHT22;42217;50.422;7.210;2024-03-23T06:37:10;4.00;99.90
56308;DHT22;42217;50.422;7.210;2024-03-23T06:39:36;4.10;99.90
56308;DHT22;42217;50.422;7.210;2024-03-23T06:42:03;4.20;99.90
56308;DHT22;42217;50.422;7.210;2024-03-23T06:44:28;4.30;99.90
56308;DHT22;42217;50.422;7.210;2024-03-23T06:46:54;4.40;99.90
56308;DHT22;42217;50.422;7.210;2024-03-23T06:49:20;4.40;99.90
56308;DHT22;42217;50.422;7.210;2024-03-23T06:51:46;4.40;99.90
56308;DHT22;42217;50.422;7.210;2024-03-23T06:54:12;4.40;99.90
56308;DHT22;42217;50.422;7.210;2024-03-23T06:56:37;4.40;99.90
56308;DHT22;42217;50.422;7.210;2024-03-23T06:59:03;4.50;99.90
56308;DHT22;42217;50.422;7.210;2024-03-23T07:01:29;4.50;99.90
56308;DHT22;42217;50.422;7.210;2024-03-23T07:03:55;4.60;99.90
56308;DHT22;42217;50.422;7.210;2024-03-23T07:06:21;4.70;99.90
56308;DHT22;42217;50.422;7.210;2024-03-23T07:08:46;4.80;99.90
56308;DHT22;42217;50.422;7.210;2024-03-23T07:11:17;4.90;99.90
56308;DHT22;42217;50.422;7.210;2024-03-23T07:13:43;5.00;99.90
56308;DHT22;42217;50.422;7.210;2024-03-23T07:16:09;5.00;99.90
56308;DHT22;42217;50.422;7.210;2024-03-23T07:18:34;5.00;99.90
56308;DHT22;42217;50.422;7.210;2024-03-23T07:21:00;5.00;99.90
56308;DHT22;42217;50.422;7.210;2024-03-23T07:23:26;5.10;99.90
56308;DHT22;42217;50.422;7.210;2024-03-23T07:25:58;5.10;99.90
56308;DHT22;42217;50.422;7.210;2024-03-23T07:28:24;5.20;99.90
56308;DHT22;42217;50.422;7.210;2024-03-23T07:31:03;5.30;99.90
56308;DHT22;42217;50.422;7.210;2024-03-23T07:33:29;5.30;99.90
56308;DHT22;42217;50.422;7.210;2024-03-23T07:35:55;5.50;99.90
56308;DHT22;42217;50.422;7.210;2024-03-23T07:38:21;5.50;99.90
56308;DHT22;42217;50.422;7.210;2024-03-23T07:40:47;5.50;99.90
56308;DHT22;42217;50.422;7.210;2024-03-23T07:43:15;5.60;99.90
56308;DHT22;42217;50.422;7.210;2024-03-23T07:45:41;5.70;99.90
56308;DHT22;42217;50.422;7.210;2024-03-23T07:48:06;5.80;99.90
56308;DHT22;42217;50.422;7.210;2024-03-23T07:50:32;5.90;99.90
56308;DHT22;42217;50.422;7.210;2024-03-23T07:52:58;5.90;99.90
56308;DHT22;42217;50.422;7.210;2024-03-23T07:55:23;6.00;99.90
56308;DHT22;42217;50.422;7.210;2024-03-23T07:57:51;6.00;99.90
56308;DHT22;42217;50.422;7.210;2024-03-23T08:00:17;6.00;99.90
56308;DHT22;42217;50.422;7.210;2024-03-23T08:02:43;5.90;99.90
56308;DHT22;42217;50.422;7.210;2024-03-23T08:05:08;6.00;99.90
56308;DHT22;42217;50.422;7.210;2024-03-23T08:07:34;6.00;99.90
56308;DHT22;42217;50.422;7.210;2024-03-23T08:10:00;6.00;99.90
56308;DHT22;42217;50.422;7.210;2024-03-23T08:12:28;6.10;99.90
56308;DHT22;42217;50.422;7.210;2024-03-23T08:14:54;6.20;99.90
56308;DHT22;42217;50.422;7.210;2024-03-23T08:17:20;6.20;99.90
56308;DHT22;42217;50.422;7.210;2024-03-23T08:19:45;6.30;99.90
56308;DHT22;42217;50.422;7.210;2024-03-23T08:22:11;6.30;99.90
56308;DHT22;42217;50.422;7.210;2024-03-23T08:24:37;6.50;99.90
56308;DHT22;42217;50.422;7.210;2024-03-23T08:27:03;6.60;99.90
56308;DHT22;42217;50.422;7.210;2024-03-23T08:29:30;6.50;99.90
56308;DHT22;42217;50.422;7.210;2024-03-23T08:31:56;6.40;99.90
56308;DHT22;42217;50.422;7.210;2024-03-23T08:34:21;6.50;99.90
56308;DHT22;42217;50.422;7.210;2024-03-23T08:36:47;6.70;99.90
56308;DHT22;42217;50.422;7.210;2024-03-23T08:39:13;6.80;99.90
56308;DHT22;42217;50.422;7.210;2024-03-23T08:41:39;7.20;99.90
56308;DHT22;42217;50.422;7.210;2024-03-23T08:44:05;7.60;99.90
56308;DHT22;42217;50.422;7.210;2024-03-23T08:46:30;7.70;99.90
56308;DHT22;42217;50.422;7.210;2024-03-23T08:48:56;7.80;99.90
56308;DHT22;42217;50.422;7.210;2024-03-23T08:51:22;7.70;99.90
56308;DHT22;42217;50.422;7.210;2024-03-23T08:53:47;7.70;99.90
56308;DHT22;42217;50.422;7.210;2024-03-23T08:56:13;7.80;99.90
56308;DHT22;42217;50.422;7.210;2024-03-23T08:58:39;7.70;99.90
56308;DHT22;42217;50.422;7.210;2024-03-23T09:01:07;7.50;99.90
56308;DHT22;42217;50.422;7.210;2024-03-23T09:03:33;7.30;99.90
56308;DHT22;42217;50.422;7.210;2024-03-23T09:06:00;7.30;99.90
56308;DHT22;42217;50.422;7.210;2024-03-23T09:08:27;7.50;99.90
56308;DHT22;42217;50.422;7.210;2024-03-23T09:10:53;7.80;99.90
56308;DHT22;42217;50.422;7.210;2024-03-23T09:13:19;8.20;99.90
56308;DHT22;42217;50.422;7.210;2024-03-23T09:15:49;8.50;99.90
56308;DHT22;42217;50.422;7.210;2024-03-23T09:18:15;8.60;99.90
56308;DHT22;42217;50.422;7.210;2024-03-23T09:20:41;8.40;99.90
56308;DHT22;42217;50.422;7.210;2024-03-23T09:23:07;8.10;99.90
56308;DHT22;42217;50.422;7.210;2024-03-23T09:25:36;7.80;99.90
56308;DHT22;42217;50.422;7.210;2024-03-23T09:28:03;7.70;99.90
56308;DHT22;42217;50.422;7.210;2024-03-23T09:30:28;7.60;99.90
56308;DHT22;42217;50.422;7.210;2024-03-23T09:32:54;7.60;99.90
56308;DHT22;42217;50.422;7.210;2024-03-23T09:35:19;7.50;99.90
56308;DHT22;42217;50.422;7.210;2024-03-23T09:37:45;7.50;99.90
56308;DHT22;42217;50.422;7.210;2024-03-23T09:40:11;7.80;99.90
56308;DHT22;42217;50.422;7.210;2024-03-23T09:42:37;7.80;99.90
56308;DHT22;42217;50.422;7.210;2024-03-23T09:45:06;8.10;99.90
56308;DHT22;42217;50.422;7.210;2024-03-23T09:47:35;8.20;99.90
56308;DHT22;42217;50.422;7.210;2024-03-23T09:50:01;8.40;99.90
56308;DHT22;42217;50.422;7.210;2024-03-23T09:52:27;8.40;99.90
56308;DHT22;42217;50.422;7.210;2024-03-23T09:54:52;8.30;99.90
56308;DHT22;42217;50.422;7.210;2024-03-23T09:57:18;8.20;99.90
56308;DHT22;42217;50.422;7.210;2024-03-23T09:59:44;8.30;99.90
56308;DHT22;42217;50.422;7.210;2024-03-23T10:02:09;8.40;99.90
56308;DHT22;42217;50.422;7.210;2024-03-23T10:04:41;8.40;99.90
56308;DHT22;42217;50.422;7.210;2024-03-23T10:07:20;8.20;99.90
56308;DHT22;42217;50.422;7.210;2024-03-23T10:09:47;8.30;99.90
56308;DHT22;42217;50.422;7.210;2024-03-23T10:12:16;8.10;99.90
56308;DHT22;42217;50.422;7.210;2024-03-23T10:14:42;8.20;99.90
56308;DHT22;42217;50.422;7.210;2024-03-23T10:17:19;8.50;99.90
56308;DHT22;42217;50.422;7.210;2024-03-23T10:19:49;8.90;99.90
56308;DHT22;42217;50.422;7.210;2024-03-23T10:22:20;8.60;99.90
56308;DHT22;42217;50.422;7.210;2024-03-23T10:24:46;8.00;99.90
56308;DHT22;42217;50.422;7.210;2024-03-23T10:27:16;7.70;99.90
56308;DHT22;42217;50.422;7.210;2024-03-23T10:29:43;7.40;99.90
56308;DHT22;42217;50.422;7.210;2024-03-23T10:32:10;7.30;99.90
56308;DHT22;42217;50.422;7.210;2024-03-23T10:34:37;7.30;99.90
56308;DHT22;42217;50.422;7.210;2024-03-23T10:37:04;7.20;99.90
56308;DHT22;42217;50.422;7.210;2024-03-23T10:39:38;7.40;99.90
56308;DHT22;42217;50.422;7.210;2024-03-23T10:42:08;7.70;99.90
56308;DHT22;42217;50.422;7.210;2024-03-23T10:44:34;7.90;99.90
56308;DHT22;42217;50.422;7.210;2024-03-23T10:47:04;8.00;99.90
56308;DHT22;42217;50.422;7.210;2024-03-23T10:49:32;8.40;99.90
56308;DHT22;42217;50.422;7.210;2024-03-23T10:51:58;8.60;99.90
56308;DHT22;42217;50.422;7.210;2024-03-23T10:54:27;8.20;99.90
56308;DHT22;42217;50.422;7.210;2024-03-23T10:57:05;7.30;99.90
56308;DHT22;42217;50.422;7.210;2024-03-23T10:59:32;6.50;99.90
56308;DHT22;42217;50.422;7.210;2024-03-23T11:02:00;6.10;99.90
56308;DHT22;42217;50.422;7.210;2024-03-23T11:04:38;6.00;99.90
56308;DHT22;42217;50.422;7.210;2024-03-23T11:09:55;6.50;99.90
56308;DHT22;42217;50.422;7.210;2024-03-23T11:14:51;6.70;99.90
56308;DHT22;42217;50.422;7.210;2024-03-23T11:17:21;6.60;99.90
56308;DHT22;42217;50.422;7.210;2024-03-23T11:25:19;6.60;99.90
56308;DHT22;42217;50.422;7.210;2024-03-23T11:27:50;6.70;99.90
56308;DHT22;42217;50.422;7.210;2024-03-23T11:32:50;7.00;99.90
56308;DHT22;42217;50.422;7.210;2024-03-23T11:35:35;6.80;99.90
56308;DHT22;42217;50.422;7.210;2024-03-23T11:38:13;6.40;99.90
56308;DHT22;42217;50.422;7.210;2024-03-23T11:40:40;5.80;99.90
56308;DHT22;42217;50.422;7.210;2024-03-23T11:43:14;5.50;99.90
56308;DHT22;42217;50.422;7.210;2024-03-23T11:45:44;5.70;99.90
56308;DHT22;42217;50.422;7.210;2024-03-23T11:48:23;5.70;99.90
56308;DHT22;42217;50.422;7.210;2024-03-23T11:50:50;5.60;99.90
56308;DHT22;42217;50.422;7.210;2024-03-23T11:53:21;5.60;99.90
56308;DHT22;42217;50.422;7.210;2024-03-23T11:55:58;5.60;99.90
56308;DHT22;42217;50.422;7.210;2024-03-23T11:58:25;5.90;99.90
56308;DHT22;42217;50.422;7.210;2024-03-23T12:03:20;6.20;99.90
56308;DHT22;42217;50.422;7.210;2024-03-23T12:05:50;6.40;99.90
56308;DHT22;42217;50.422;7.210;2024-03-23T12:08:20;6.50;99.90
56308;DHT22;42217;50.422;7.210;2024-03-23T12:13:17;7.00;99.90
56308;DHT22;42217;50.422;7.210;2024-03-23T12:15:44;7.40;99.90
56308;DHT22;42217;50.422;7.210;2024-03-23T12:18:10;7.80;99.90
56308;DHT22;42217;50.422;7.210;2024-03-23T12:20:37;8.00;99.90
56308;DHT22;42217;50.422;7.210;2024-03-23T12:23:16;7.90;99.90
56308;DHT22;42217;50.422;7.210;2024-03-23T12:25:41;8.00;99.90
56308;DHT22;42217;50.422;7.210;2024-03-23T12:28:07;8.00;99.90
56308;DHT22;42217;50.422;7.210;2024-03-23T12:30:39;7.90;99.90
56308;DHT22;42217;50.422;7.210;2024-03-23T12:33:05;8.00;99.90
56308;DHT22;42217;50.422;7.210;2024-03-23T12:35:31;8.30;99.90
56308;DHT22;42217;50.422;7.210;2024-03-23T12:37:57;8.50;99.90
56308;DHT22;42217;50.422;7.210;2024-03-23T12:40:23;8.50;99.90
56308;DHT22;42217;50.422;7.210;2024-03-23T12:42:48;8.40;99.90
56308;DHT22;42217;50.422;7.210;2024-03-23T12:45:14;8.50;99.90
56308;DHT22;42217;50.422;7.210;2024-03-23T12:47:40;8.60;99.90
56308;DHT22;42217;50.422;7.210;2024-03-23T12:50:06;9.10;99.90
56308;DHT22;42217;50.422;7.210;2024-03-23T12:52:33;9.40;99.90
56308;DHT22;42217;50.422;7.210;2024-03-23T12:54:59;9.40;99.90
56308;DHT22;42217;50.422;7.210;2024-03-23T12:57:25;9.20;99.90
56308;DHT22;42217;50.422;7.210;2024-03-23T12:59:52;9.40;99.90
56308;DHT22;42217;50.422;7.210;2024-03-23T13:02:21;9.30;99.90
56308;DHT22;42217;50.422;7.210;2024-03-23T13:04:52;9.00;99.90
56308;DHT22;42217;50.422;7.210;2024-03-23T13:07:18;8.80;99.90
56308;DHT22;42217;50.422;7.210;2024-03-23T13:09:44;8.80;99.90
56308;DHT22;42217;50.422;7.210;2024-03-23T13:12:10;8.70;99.90
56308;DHT22;42217;50.422;7.210;2024-03-23T13:14:38;8.70;99.90
56308;DHT22;42217;50.422;7.210;2024-03-23T13:17:04;8.60;99.90
56308;DHT22;42217;50.422;7.210;2024-03-23T13:19:30;8.60;99.90
56308;DHT22;42217;50.422;7.210;2024-03-23T13:22:00;8.50;99.90
56308;DHT22;42217;50.422;7.210;2024-03-23T13:24:26;8.20;99.90
56308;DHT22;42217;50.422;7.210;2024-03-23T13:26:53;8.00;99.90
56308;DHT22;42217;50.422;7.210;2024-03-23T13:29:20;8.10;99.90
56308;DHT22;42217;50.422;7.210;2024-03-23T13:31:46;8.30;99.90
56308;DHT22;42217;50.422;7.210;2024-03-23T13:34:13;8.30;99.90
56308;DHT22;42217;50.422;7.210;2024-03-23T13:36:41;8.40;99.90
56308;DHT22;42217;50.422;7.210;2024-03-23T13:39:07;8.30;99.90
56308;DHT22;42217;50.422;7.210;2024-03-23T13:41:43;8.30;99.90
56308;DHT22;42217;50.422;7.210;2024-03-23T13:44:11;8.30;99.90
56308;DHT22;42217;50.422;7.210;2024-03-23T13:46:40;8.20;99.90
56308;DHT22;42217;50.422;7.210;2024-03-23T13:49:28;8.10;99.90
56308;DHT22;42217;50.422;7.210;2024-03-23T13:51:58;8.10;99.90
56308;DHT22;42217;50.422;7.210;2024-03-23T13:54:24;8.30;99.90
56308;DHT22;42217;50.422;7.210;2024-03-23T13:56:50;8.80;99.90
56308;DHT22;42217;50.422;7.210;2024-03-23T13:59:16;9.40;99.90
56308;DHT22;42217;50.422;7.210;2024-03-23T14:01:43;10.70;99.90
56308;DHT22;42217;50.422;7.210;2024-03-23T14:04:09;11.60;99.90
56308;DHT22;42217;50.422;7.210;2024-03-23T14:06:35;11.80;99.60
56308;DHT22;42217;50.422;7.210;2024-03-23T14:09:01;11.20;99.90
56308;DHT22;42217;50.422;7.210;2024-03-23T14:11:26;10.10;99.90
56308;DHT22;42217;50.422;7.210;2024-03-23T14:13:54;9.20;99.90
56308;DHT22;42217;50.422;7.210;2024-03-23T14:16:20;8.80;99.90
56308;DHT22;42217;50.422;7.210;2024-03-23T14:18:48;8.70;99.90
56308;DHT22;42217;50.422;7.210;2024-03-23T14:21:14;8.80;99.90
56308;DHT22;42217;50.422;7.210;2024-03-23T14:23:40;8.90;99.90
56308;DHT22;42217;50.422;7.210;2024-03-23T14:26:08;8.80;99.90
56308;DHT22;42217;50.422;7.210;2024-03-23T14:28:34;8.70;99.90
56308;DHT22;42217;50.422;7.210;2024-03-23T14:31:00;8.70;99.90
56308;DHT22;42217;50.422;7.210;2024-03-23T14:33:26;8.50;99.90
56308;DHT22;42217;50.422;7.210;2024-03-23T14:35:55;8.00;99.90
56308;DHT22;42217;50.422;7.210;2024-03-23T14:38:22;6.50;99.90
56308;DHT22;42217;50.422;7.210;2024-03-23T14:40:48;5.80;99.90
56308;DHT22;42217;50.422;7.210;2024-03-23T14:43:14;5.90;99.90
56308;DHT22;42217;50.422;7.210;2024-03-23T14:46:15;6.70;99.90
56308;DHT22;42217;50.422;7.210;2024-03-23T14:48:42;7.50;99.90
56308;DHT22;42217;50.422;7.210;2024-03-23T14:51:08;8.30;99.90
56308;DHT22;42217;50.422;7.210;2024-03-23T14:53:36;8.50;99.90
56308;DHT22;42217;50.422;7.210;2024-03-23T14:56:03;8.40;99.90
56308;DHT22;42217;50.422;7.210;2024-03-23T14:58:29;7.90;99.90
56308;DHT22;42217;50.422;7.210;2024-03-23T15:01:03;8.20;99.90
56308;DHT22;42217;50.422;7.210;2024-03-23T15:03:29;8.90;99.90
56308;DHT22;42217;50.422;7.210;2024-03-23T15:05:56;8.70;99.90
56308;DHT22;42217;50.422;7.210;2024-03-23T15:08:22;8.60;99.90
56308;DHT22;42217;50.422;7.210;2024-03-23T15:10:48;9.40;99.90
56308;DHT22;42217;50.422;7.210;2024-03-23T15:13:14;10.30;99.90
56308;DHT22;42217;50.422;7.210;2024-03-23T15:15:41;10.80;99.90
56308;DHT22;42217;50.422;7.210;2024-03-23T15:18:12;10.70;99.90
56308;DHT22;42217;50.422;7.210;2024-03-23T15:20:39;10.90;99.90
56308;DHT22;42217;50.422;7.210;2024-03-23T15:23:05;10.50;99.90
56308;DHT22;42217;50.422;7.210;2024-03-23T15:25:30;9.10;99.90
56308;DHT22;42217;50.422;7.210;2024-03-23T15:27:57;8.30;99.90
56308;DHT22;42217;50.422;7.210;2024-03-23T15:30:24;7.50;99.90
56308;DHT22;42217;50.422;7.210;2024-03-23T15:32:50;7.10;99.90
56308;DHT22;42217;50.422;7.210;2024-03-23T15:35:15;6.80;99.90
56308;DHT22;42217;50.422;7.210;2024-03-23T15:37:41;6.70;99.90
56308;DHT22;42217;50.422;7.210;2024-03-23T15:40:07;5.50;99.90
56308;DHT22;42217;50.422;7.210;2024-03-23T15:42:35;4.30;99.90
56308;DHT22;42217;50.422;7.210;2024-03-23T15:45:01;3.50;99.90
56308;DHT22;42217;50.422;7.210;2024-03-23T15:47:29;3.20;99.90
56308;DHT22;42217;50.422;7.210;2024-03-23T15:49:54;3.00;99.90
56308;DHT22;42217;50.422;7.210;2024-03-23T15:52:21;2.90;99.90
56308;DHT22;42217;50.422;7.210;2024-03-23T15:54:47;2.90;99.90
56308;DHT22;42217;50.422;7.210;2024-03-23T15:57:12;2.90;99.90
56308;DHT22;42217;50.422;7.210;2024-03-23T15:59:41;3.00;99.90
56308;DHT22;42217;50.422;7.210;2024-03-23T16:02:07;3.10;99.90
56308;DHT22;42217;50.422;7.210;2024-03-23T16:04:32;3.10;99.90
56308;DHT22;42217;50.422;7.210;2024-03-23T16:06:58;3.20;99.90
56308;DHT22;42217;50.422;7.210;2024-03-23T16:09:24;3.20;99.90
56308;DHT22;42217;50.422;7.210;2024-03-23T16:11:49;3.30;99.90
56308;DHT22;42217;50.422;7.210;2024-03-23T16:14:15;3.30;99.90
56308;DHT22;42217;50.422;7.210;2024-03-23T16:16:41;3.40;99.90
56308;DHT22;42217;50.422;7.210;2024-03-23T16:19:06;3.50;99.90
56308;DHT22;42217;50.422;7.210;2024-03-23T16:21:32;3.70;99.90
56308;DHT22;42217;50.422;7.210;2024-03-23T16:23:58;3.90;99.90
56308;DHT22;42217;50.422;7.210;2024-03-23T16:26:23;3.90;99.90
56308;DHT22;42217;50.422;7.210;2024-03-23T16:28:49;3.90;99.90
56308;DHT22;42217;50.422;7.210;2024-03-23T16:31:15;3.90;99.90
56308;DHT22;42217;50.422;7.210;2024-03-23T16:33:42;4.00;99.90
56308;DHT22;42217;50.422;7.210;2024-03-23T16:36:09;3.90;99.90
56308;DHT22;42217;50.422;7.210;2024-03-23T16:38:38;3.90;99.90
56308;DHT22;42217;50.422;7.210;2024-03-23T16:41:06;3.90;99.90
56308;DHT22;42217;50.422;7.210;2024-03-23T16:43:36;3.90;99.90
56308;DHT22;42217;50.422;7.210;2024-03-23T16:46:10;3.80;99.90
56308;DHT22;42217;50.422;7.210;2024-03-23T16:48:40;3.80;99.90
56308;DHT22;42217;50.422;7.210;2024-03-23T16:51:06;3.80;99.90
56308;DHT22;42217;50.422;7.210;2024-03-23T16:53:33;3.80;99.90
56308;DHT22;42217;50.422;7.210;2024-03-23T16:56:03;3.80;99.90